Wetterdaten: Freitag, 08.11.2013
Datum Zeit Temperatur Luftfeuchte Luftdruck Regen Wind Richtung Richtung Taupunkt Windchill Windben
08.11.2013 00:00 3,5 C 90 % 1016,7 hPa 0,0 l/m 0,0 km/h (0 Bft) NO 45 2,0 C 8,2 C 0,0 km/h (0 Bft)
08.11.2013 00:05 3,3 C 90 % 1016,7 hPa 0,0 l/m 0,0 km/h (0 Bft) NO 45 1,8 C 8,2 C 0,0 km/h (0 Bft)
08.11.2013 00:10 3,3 C 90 % 1016,6 hPa 0,0 l/m 0,0 km/h (0 Bft) NO 45 1,8 C 8,2 C 0,0 km/h (0 Bft)
08.11.2013 00:15 3,6 C 90 % 1016,6 hPa 0,0 l/m 0,0 km/h (0 Bft) NO 45 2,1 C 8,2 C 0,0 km/h (0 Bft)
08.11.2013 00:20 3,3 C 90 % 1016,6 hPa 0,0 l/m 0,0 km/h (0 Bft) NO 45 1,8 C 8,2 C 0,0 km/h (0 Bft)
08.11.2013 00:25 3,2 C 90 % 1016,6 hPa 0,0 l/m 0,0 km/h (0 Bft) NO 45 1,7 C 8,2 C 0,0 km/h (0 Bft)
08.11.2013 00:30 3,3 C 90 % 1016,5 hPa 0,0 l/m 0,0 km/h (0 Bft) NO 45 1,8 C 8,2 C 0,0 km/h (0 Bft)
08.11.2013 00:35 3,2 C 90 % 1016,5 hPa 0,0 l/m 0,0 km/h (0 Bft) NO 45 1,7 C 8,2 C 0,0 km/h (0 Bft)
08.11.2013 00:40 3,3 C 90 % 1016,5 hPa 0,0 l/m 0,0 km/h (0 Bft) NO 45 1,8 C 8,2 C 0,0 km/h (0 Bft)
08.11.2013 00:45 3,6 C 91 % 1016,5 hPa 0,0 l/m 0,0 km/h (0 Bft) NO 45 2,3 C 8,2 C 0,0 km/h (0 Bft)
08.11.2013 00:50 3,5 C 91 % 1016,3 hPa 0,0 l/m 0,0 km/h (0 Bft) NO 45 2,2 C 8,2 C 0,0 km/h (0 Bft)
08.11.2013 00:55 3,8 C 91 % 1016,3 hPa 0,0 l/m 0,0 km/h (0 Bft) NO 45 2,5 C 8,2 C 0,0 km/h (0 Bft)
08.11.2013 01:00 3,5 C 91 % 1016,3 hPa 0,0 l/m 0,0 km/h (0 Bft) NO 45 2,2 C 8,2 C 0,0 km/h (0 Bft)
08.11.2013 01:05 3,3 C 91 % 1016,3 hPa 0,0 l/m 0,0 km/h (0 Bft) NO 45 2,0 C 8,2 C 0,0 km/h (0 Bft)
08.11.2013 01:10 3,5 C 91 % 1016,1 hPa 0,0 l/m 0,0 km/h (0 Bft) NO 45 2,2 C 8,2 C 0,0 km/h (0 Bft)
08.11.2013 01:15 3,4 C 91 % 1016,1 hPa 0,0 l/m 0,0 km/h (0 Bft) NO 45 2,1 C 8,2 C 0,0 km/h (0 Bft)
08.11.2013 01:20 3,3 C 92 % 1016,1 hPa 0,0 l/m 0,0 km/h (0 Bft) NO 45 2,1 C 8,2 C 0,0 km/h (0 Bft)
08.11.2013 01:25 3,3 C 92 % 1016,1 hPa 0,0 l/m 0,0 km/h (0 Bft) NO 45 2,1 C 8,2 C 0,0 km/h (0 Bft)
08.11.2013 01:30 3,4 C 92 % 1016,0 hPa 0,0 l/m 0,0 km/h (0 Bft) NO 45 2,2 C 8,2 C 0,0 km/h (0 Bft)
08.11.2013 01:35 3,4 C 92 % 1016,0 hPa 0,0 l/m 0,0 km/h (0 Bft) NO 45 2,2 C 8,2 C 0,0 km/h (0 Bft)
08.11.2013 01:40 3,3 C 92 % 1016,0 hPa 0,0 l/m 0,0 km/h (0 Bft) NO 45 2,1 C 8,2 C 0,0 km/h (0 Bft)
08.11.2013 01:45 3,3 C 92 % 1016,0 hPa 0,0 l/m 0,0 km/h (0 Bft) NO 45 2,1 C 8,2 C 0,0 km/h (0 Bft)
08.11.2013 01:50 3,2 C 92 % 1015,9 hPa 0,0 l/m 0,0 km/h (0 Bft) NO 45 2,0 C 8,2 C 0,0 km/h (0 Bft)
08.11.2013 01:55 3,7 C 92 % 1015,9 hPa 0,0 l/m 0,0 km/h (0 Bft) NO 45 2,5 C 8,2 C 0,0 km/h (0 Bft)
08.11.2013 02:00 3,5 C 92 % 1015,9 hPa 0,0 l/m 0,0 km/h (0 Bft) NO 45 2,3 C 8,2 C 0,0 km/h (0 Bft)
08.11.2013 02:05 3,4 C 92 % 1015,9 hPa 0,0 l/m 0,0 km/h (0 Bft) NO 45 2,2 C 8,2 C 0,0 km/h (0 Bft)
08.11.2013 02:10 3,0 C 91 % 1016,2 hPa 0,0 l/m 0,0 km/h (0 Bft) NO 45 1,7 C 8,2 C 0,0 km/h (0 Bft)
08.11.2013 02:15 2,9 C 93 % 1016,2 hPa 0,0 l/m 0,0 km/h (0 Bft) NO 45 1,9 C 8,2 C 0,0 km/h (0 Bft)
08.11.2013 02:20 2,5 C 93 % 1016,2 hPa 0,0 l/m 0,0 km/h (0 Bft) NO 45 1,5 C 8,2 C 0,0 km/h (0 Bft)
08.11.2013 02:25 2,7 C 92 % 1016,2 hPa 0,0 l/m 0,0 km/h (0 Bft) NO 45 1,5 C 8,2 C 0,0 km/h (0 Bft)
08.11.2013 02:30 2,6 C 92 % 1015,9 hPa 0,0 l/m 0,0 km/h (0 Bft) W-SW 247 1,4 C 2,7 C 0,0 km/h (0 Bft)
08.11.2013 02:35 2,9 C 93 % 1015,9 hPa 0,0 l/m 0,8 km/h (0 Bft) NO 45 1,9 C 2,7 C 3,7 km/h (1 Bft)
08.11.2013 02:40 2,9 C 93 % 1015,9 hPa 0,0 l/m 1,1 km/h (1 Bft) N 360 1,9 C 2,8 C 0,0 km/h (0 Bft)
08.11.2013 02:45 2,7 C 93 % 1015,9 hPa 0,0 l/m 0,6 km/h (0 Bft) W 270 1,7 C 2,8 C 0,0 km/h (0 Bft)
08.11.2013 02:50 2,8 C 93 % 1015,9 hPa 0,0 l/m 0,0 km/h (0 Bft) N-NW 337 1,8 C 2,7 C 0,0 km/h (0 Bft)
08.11.2013 02:55 2,8 C 93 % 1015,9 hPa 0,0 l/m 0,0 km/h (0 Bft) N-NO 22 1,8 C 2,7 C 0,0 km/h (0 Bft)
08.11.2013 03:00 2,6 C 93 % 1015,9 hPa 0,0 l/m 0,0 km/h (0 Bft) SW 225 1,6 C 2,7 C 0,0 km/h (0 Bft)
08.11.2013 03:05 2,9 C 93 % 1015,9 hPa 0,0 l/m 0,0 km/h (0 Bft) NO 45 1,9 C 2,8 C 1,6 km/h (1 Bft)
08.11.2013 03:08 2,9 C 93 % 1015,8 hPa 0,0 l/m 0,0 km/h (0 Bft) NW 315 1,9 C 2,8 C 0,0 km/h (0 Bft)
08.11.2013 03:10 2,9 C 93 % 1015,8 hPa 0,0 l/m 0,0 km/h (0 Bft) NW 315 1,9 C 2,8 C 0,0 km/h (0 Bft)
08.11.2013 03:15 3,2 C 92 % 1015,8 hPa 0,0 l/m 0,2 km/h (0 Bft) N-NO 22 2,0 C 2,9 C 1,8 km/h (1 Bft)
08.11.2013 03:20 3,2 C 92 % 1015,8 hPa 0,0 l/m 0,2 km/h (0 Bft) N 360 2,0 C 3,1 C 0,0 km/h (0 Bft)
08.11.2013 03:25 2,9 C 93 % 1015,8 hPa 0,0 l/m 0,0 km/h (0 Bft) N 360 1,9 C 3,1 C 0,0 km/h (0 Bft)
08.11.2013 03:30 2,9 C 93 % 1016,0 hPa 0,0 l/m 0,0 km/h (0 Bft) N 360 1,9 C 3,2 C 0,0 km/h (0 Bft)
08.11.2013 03:35 3,5 C 93 % 1016,0 hPa 0,0 l/m 0,5 km/h (0 Bft) N-NW 337 2,5 C 3,4 C 0,0 km/h (0 Bft)
08.11.2013 03:40 3,6 C 93 % 1016,0 hPa 0,0 l/m 1,0 km/h (0 Bft) SW 225 2,6 C 3,9 C 1,8 km/h (1 Bft)
08.11.2013 03:45 3,7 C 93 % 1016,0 hPa 0,0 l/m 1,0 km/h (0 Bft) O 90 2,7 C 4,3 C 0,0 km/h (0 Bft)
08.11.2013 03:50 3,9 C 93 % 1015,8 hPa 0,0 l/m 0,5 km/h (0 Bft) W 270 2,9 C 4,4 C 6,9 km/h (2 Bft)
08.11.2013 03:55 4,1 C 93 % 1015,8 hPa 0,0 l/m 0,0 km/h (0 Bft) N 360 3,1 C 4,5 C 0,0 km/h (0 Bft)
08.11.2013 04:00 4,0 C 93 % 1015,8 hPa 0,0 l/m 0,6 km/h (0 Bft) N-NO 22 3,0 C 4,6 C 7,2 km/h (2 Bft)
08.11.2013 04:05 4,2 C 93 % 1015,8 hPa 0,0 l/m 0,8 km/h (0 Bft) W-NW 292 3,2 C 4,8 C 0,0 km/h (0 Bft)
08.11.2013 04:10 4,2 C 93 % 1015,6 hPa 0,0 l/m 0,3 km/h (0 Bft) O-SO 112 3,2 C 5,0 C 1,6 km/h (1 Bft)
08.11.2013 04:15 4,5 C 93 % 1015,6 hPa 0,0 l/m 0,3 km/h (0 Bft) SW 225 3,5 C 5,1 C 0,0 km/h (0 Bft)
08.11.2013 04:20 4,6 C 93 % 1015,6 hPa 0,0 l/m 1,0 km/h (0 Bft) N-NO 22 3,6 C 5,3 C 1,8 km/h (1 Bft)
08.11.2013 04:25 4,7 C 93 % 1015,6 hPa 0,0 l/m 1,0 km/h (0 Bft) N 360 3,7 C 5,3 C 2,7 km/h (1 Bft)
08.11.2013 04:30 4,7 C 93 % 1015,7 hPa 0,0 l/m 1,1 km/h (1 Bft) NO 45 3,7 C 5,4 C 0,0 km/h (0 Bft)
08.11.2013 04:35 5,0 C 93 % 1015,7 hPa 0,0 l/m 1,4 km/h (1 Bft) O-SO 112 4,0 C 5,4 C 0,0 km/h (0 Bft)
08.11.2013 04:40 4,8 C 94 % 1015,7 hPa 0,0 l/m 0,6 km/h (0 Bft) W-NW 292 3,9 C 5,4 C 0,0 km/h (0 Bft)
08.11.2013 04:45 4,9 C 94 % 1015,7 hPa 0,0 l/m 0,5 km/h (0 Bft) W-SW 247 4,0 C 5,5 C 2,3 km/h (1 Bft)
08.11.2013 04:50 5,1 C 93 % 1015,4 hPa 0,0 l/m 1,0 km/h (0 Bft) SW 225 4,1 C 5,6 C 0,0 km/h (0 Bft)
08.11.2013 04:55 5,1 C 93 % 1015,4 hPa 0,0 l/m 1,1 km/h (1 Bft) W-SW 247 4,1 C 5,6 C 3,2 km/h (1 Bft)
08.11.2013 05:00 5,2 C 93 % 1015,4 hPa 0,0 l/m 1,0 km/h (0 Bft) NO 45 4,2 C 5,6 C 0,0 km/h (0 Bft)
08.11.2013 05:05 5,4 C 93 % 1015,4 hPa 0,0 l/m 0,8 km/h (0 Bft) W-NW 292 4,4 C 5,6 C 0,0 km/h (0 Bft)
08.11.2013 05:10 5,5 C 93 % 1015,4 hPa 0,0 l/m 0,5 km/h (0 Bft) NO 45 4,5 C 5,6 C 0,0 km/h (0 Bft)
08.11.2013 05:15 5,4 C 93 % 1015,4 hPa 0,0 l/m 0,5 km/h (0 Bft) W-SW 247 4,4 C 5,7 C 2,3 km/h (1 Bft)
08.11.2013 05:20 5,7 C 93 % 1015,4 hPa 0,0 l/m 0,3 km/h (0 Bft) S-SW 202 4,7 C 5,8 C 3,5 km/h (1 Bft)
08.11.2013 05:25 5,7 C 93 % 1015,4 hPa 0,0 l/m 0,5 km/h (0 Bft) W-SW 247 4,7 C 5,9 C 0,0 km/h (0 Bft)
08.11.2013 05:30 5,7 C 93 % 1015,3 hPa 0,0 l/m 0,5 km/h (0 Bft) N 360 4,7 C 5,8 C 0,0 km/h (0 Bft)
08.11.2013 05:35 5,7 C 93 % 1015,3 hPa 0,0 l/m 0,2 km/h (0 Bft) O-NO 67 4,7 C 5,8 C 0,0 km/h (0 Bft)
08.11.2013 05:40 5,7 C 93 % 1015,3 hPa 0,0 l/m 0,0 km/h (0 Bft) W-SW 247 4,7 C 5,7 C 0,0 km/h (0 Bft)
08.11.2013 05:45 5,6 C 92 % 1015,3 hPa 0,0 l/m 0,0 km/h (0 Bft) S-SW 202 4,4 C 5,7 C 0,0 km/h (0 Bft)
08.11.2013 05:50 5,7 C 92 % 1015,2 hPa 0,0 l/m 0,2 km/h (0 Bft) N-NO 22 4,5 C 5,6 C 0,0 km/h (0 Bft)
08.11.2013 05:55 5,7 C 92 % 1015,2 hPa 0,0 l/m 0,2 km/h (0 Bft) NO 45 4,5 C 5,6 C 0,0 km/h (0 Bft)
08.11.2013 06:00 5,4 C 91 % 1015,2 hPa 0,0 l/m 0,2 km/h (0 Bft) S 180 4,1 C 5,6 C 0,0 km/h (0 Bft)
08.11.2013 06:05 5,6 C 91 % 1015,2 hPa 0,0 l/m 0,3 km/h (0 Bft) W 270 4,2 C 5,5 C 1,8 km/h (1 Bft)
08.11.2013 06:10 5,6 C 91 % 1015,2 hPa 0,0 l/m 0,3 km/h (0 Bft) W 270 4,2 C 5,6 C 0,0 km/h (0 Bft)
08.11.2013 06:15 5,3 C 90 % 1015,2 hPa 0,0 l/m 0,2 km/h (0 Bft) S 180 3,8 C 5,6 C 0,0 km/h (0 Bft)
08.11.2013 06:20 5,4 C 90 % 1015,2 hPa 0,0 l/m 0,0 km/h (0 Bft) NO 45 3,9 C 5,5 C 0,0 km/h (0 Bft)
08.11.2013 06:25 5,2 C 90 % 1015,2 hPa 0,0 l/m 0,0 km/h (0 Bft) SO 135 3,7 C 5,5 C 0,0 km/h (0 Bft)
08.11.2013 06:30 5,2 C 90 % 1015,3 hPa 0,0 l/m 0,0 km/h (0 Bft) S-SW 202 3,7 C 5,4 C 0,0 km/h (0 Bft)
08.11.2013 06:35 5,0 C 90 % 1015,3 hPa 0,0 l/m 0,0 km/h (0 Bft) W 270 3,5 C 5,4 C 0,0 km/h (0 Bft)
08.11.2013 06:40 4,8 C 90 % 1015,3 hPa 0,0 l/m 0,0 km/h (0 Bft) S-SW 202 3,3 C 5,2 C 0,0 km/h (0 Bft)
08.11.2013 06:45 4,9 C 90 % 1015,3 hPa 0,0 l/m 0,0 km/h (0 Bft) NO 45 3,4 C 5,2 C 0,0 km/h (0 Bft)
08.11.2013 06:50 5,0 C 90 % 1015,5 hPa 0,0 l/m 0,2 km/h (0 Bft) NO 45 3,5 C 5,1 C 2,1 km/h (1 Bft)
08.11.2013 06:55 5,1 C 90 % 1015,5 hPa 0,0 l/m 0,3 km/h (0 Bft) NO 45 3,6 C 5,3 C 0,0 km/h (0 Bft)
08.11.2013 07:00 5,3 C 90 % 1015,5 hPa 0,0 l/m 0,3 km/h (0 Bft) NO 45 3,8 C 5,5 C 0,0 km/h (0 Bft)
08.11.2013 07:05 5,5 C 90 % 1015,5 hPa 0,0 l/m 0,6 km/h (0 Bft) S 180 4,0 C 5,6 C 5,6 km/h (1 Bft)
08.11.2013 07:10 5,6 C 90 % 1015,4 hPa 0,0 l/m 1,0 km/h (0 Bft) O-NO 67 4,1 C 5,9 C 2,7 km/h (1 Bft)
08.11.2013 07:15 5,4 C 90 % 1015,4 hPa 0,0 l/m 0,6 km/h (0 Bft) O 90 3,9 C 5,9 C 0,0 km/h (0 Bft)
08.11.2013 07:20 5,5 C 90 % 1015,4 hPa 0,0 l/m 0,5 km/h (0 Bft) NO 45 4,0 C 5,9 C 0,0 km/h (0 Bft)
08.11.2013 07:25 5,8 C 90 % 1015,4 hPa 0,0 l/m 0,5 km/h (0 Bft) N 360 4,3 C 6,0 C 0,0 km/h (0 Bft)
08.11.2013 07:26 5,7 C 90 % 1015,4 hPa 0,0 l/m 0,5 km/h (0 Bft) N 360 4,2 C 6,1 C 0,0 km/h (0 Bft)
08.11.2013 07:30 5,5 C 90 % 1015,4 hPa 0,0 l/m 0,5 km/h (0 Bft) NO 45 4,0 C 6,2 C 2,7 km/h (1 Bft)
08.11.2013 07:35 5,4 C 89 % 1015,4 hPa 0,0 l/m 0,3 km/h (0 Bft) O-SO 112 3,7 C 6,2 C 0,0 km/h (0 Bft)
08.11.2013 07:40 5,7 C 89 % 1015,4 hPa 0,0 l/m 0,5 km/h (0 Bft) NO 45 4,0 C 6,2 C 2,3 km/h (1 Bft)
08.11.2013 07:45 5,6 C 89 % 1015,2 hPa 0,0 l/m 0,5 km/h (0 Bft) NO 45 3,9 C 6,2 C 2,3 km/h (1 Bft)
08.11.2013 07:50 5,7 C 89 % 1015,2 hPa 0,0 l/m 0,5 km/h (0 Bft) NO 45 4,0 C 6,2 C 2,3 km/h (1 Bft)
08.11.2013 07:55 5,9 C 89 % 1015,2 hPa 0,0 l/m 0,5 km/h (0 Bft) O-SO 112 4,2 C 6,4 C 3,1 km/h (1 Bft)
08.11.2013 08:00 6,2 C 89 % 1015,2 hPa 0,0 l/m 0,5 km/h (0 Bft) O-SO 112 4,5 C 6,4 C 3,1 km/h (1 Bft)
08.11.2013 08:05 6,2 C 89 % 1015,1 hPa 0,0 l/m 1,1 km/h (1 Bft) W-SW 247 4,5 C 6,7 C 2,1 km/h (1 Bft)
08.11.2013 08:10 6,2 C 88 % 1015,1 hPa 0,0 l/m 1,8 km/h (1 Bft) W 270 4,4 C 7,1 C 3,2 km/h (1 Bft)
08.11.2013 08:15 6,7 C 88 % 1015,1 hPa 0,0 l/m 2,1 km/h (1 Bft) W-NW 292 4,9 C 7,1 C 2,6 km/h (1 Bft)
08.11.2013 08:20 7,0 C 86 % 1015,1 hPa 0,0 l/m 1,9 km/h (1 Bft) W 270 4,8 C 7,5 C 0,0 km/h (0 Bft)
08.11.2013 08:25 7,3 C 85 % 1015,2 hPa 0,0 l/m 1,9 km/h (1 Bft) S 180 4,9 C 7,7 C 7,9 km/h (2 Bft)
08.11.2013 08:30 7,5 C 83 % 1015,2 hPa 0,0 l/m 1,9 km/h (1 Bft) W-SW 247 4,8 C 7,9 C 0,0 km/h (0 Bft)
08.11.2013 08:35 7,3 C 83 % 1015,2 hPa 0,0 l/m 2,3 km/h (1 Bft) O-SO 112 4,6 C 8,1 C 0,0 km/h (0 Bft)
08.11.2013 08:40 7,3 C 82 % 1015,2 hPa 0,0 l/m 1,8 km/h (1 Bft) O 90 4,4 C 8,3 C 0,0 km/h (0 Bft)
08.11.2013 08:45 7,9 C 81 % 1015,2 hPa 0,0 l/m 1,6 km/h (1 Bft) NO 45 4,8 C 8,5 C 0,0 km/h (0 Bft)
08.11.2013 08:50 7,9 C 81 % 1015,2 hPa 0,0 l/m 1,6 km/h (1 Bft) N-NO 22 4,8 C 8,6 C 0,0 km/h (0 Bft)
08.11.2013 08:55 8,1 C 80 % 1015,2 hPa 0,0 l/m 1,9 km/h (1 Bft) W-SW 247 4,9 C 9,0 C 2,7 km/h (1 Bft)
08.11.2013 09:00 8,5 C 79 % 1015,2 hPa 0,0 l/m 1,9 km/h (1 Bft) W-SW 247 5,1 C 9,0 C 2,7 km/h (1 Bft)
08.11.2013 09:05 8,5 C 79 % 1015,3 hPa 0,0 l/m 3,1 km/h (1 Bft) N-NW 337 5,1 C 9,4 C 7,4 km/h (2 Bft)
08.11.2013 09:10 8,4 C 79 % 1015,3 hPa 0,0 l/m 3,1 km/h (1 Bft) N-NW 337 5,0 C 9,4 C 7,4 km/h (2 Bft)
08.11.2013 09:15 8,4 C 79 % 1015,3 hPa 0,0 l/m 3,1 km/h (1 Bft) N-NW 337 5,0 C 9,4 C 7,4 km/h (2 Bft)
08.11.2013 09:20 8,9 C 78 % 1015,3 hPa 0,0 l/m 0,0 km/h (0 Bft) N-NW 337 5,3 C 9,4 C 0,0 km/h (0 Bft)
08.11.2013 09:25 8,7 C 78 % 1015,4 hPa 0,0 l/m 0,0 km/h (0 Bft) N-NW 337 5,1 C 9,4 C 0,0 km/h (0 Bft)
08.11.2013 09:30 8,8 C 78 % 1015,4 hPa 0,0 l/m 0,0 km/h (0 Bft) N-NW 337 5,2 C 9,4 C 0,0 km/h (0 Bft)
08.11.2013 09:35 8,8 C 78 % 1015,4 hPa 0,0 l/m 0,0 km/h (0 Bft) N-NW 337 5,2 C 9,4 C 0,0 km/h (0 Bft)
08.11.2013 09:40 9,5 C 76 % 1015,4 hPa 0,0 l/m 0,0 km/h (0 Bft) N-NW 337 5,5 C 9,4 C 0,0 km/h (0 Bft)
08.11.2013 09:45 9,7 C 76 % 1015,3 hPa 0,0 l/m 0,0 km/h (0 Bft) N-NW 337 5,7 C 9,4 C 0,0 km/h (0 Bft)
08.11.2013 09:50 9,7 C 76 % 1015,3 hPa 0,0 l/m 0,0 km/h (0 Bft) N-NW 337 5,7 C 9,4 C 0,0 km/h (0 Bft)
08.11.2013 09:55 9,7 C 76 % 1015,3 hPa 0,0 l/m 0,0 km/h (0 Bft) N-NW 337 5,7 C 9,4 C 0,0 km/h (0 Bft)
08.11.2013 10:00 10,1 C 76 % 1015,3 hPa 0,0 l/m 0,0 km/h (0 Bft) N-NW 337 6,1 C 9,4 C 0,0 km/h (0 Bft)
08.11.2013 10:05 10,2 C 75 % 1015,4 hPa 0,0 l/m 0,0 km/h (0 Bft) N-NW 337 6,0 C 9,4 C 0,0 km/h (0 Bft)
08.11.2013 10:10 10,5 C 74 % 1015,4 hPa 0,0 l/m 0,0 km/h (0 Bft) N-NW 337 6,1 C 9,4 C 0,0 km/h (0 Bft)
08.11.2013 10:15 10,9 C 74 % 1015,4 hPa 0,0 l/m 0,0 km/h (0 Bft) N-NW 337 6,5 C 9,4 C 0,0 km/h (0 Bft)
08.11.2013 10:20 10,9 C 73 % 1015,4 hPa 0,0 l/m 0,0 km/h (0 Bft) N-NW 337 6,3 C 9,4 C 0,0 km/h (0 Bft)
08.11.2013 10:25 11,3 C 71 % 1015,4 hPa 0,0 l/m 0,0 km/h (0 Bft) N-NW 337 6,2 C 9,4 C 0,0 km/h (0 Bft)
08.11.2013 10:30 11,6 C 70 % 1015,4 hPa 0,0 l/m 0,0 km/h (0 Bft) N-NW 337 6,3 C 9,4 C 0,0 km/h (0 Bft)
08.11.2013 10:35 11,9 C 70 % 1015,4 hPa 0,0 l/m 0,0 km/h (0 Bft) N-NW 337 6,6 C 9,4 C 0,0 km/h (0 Bft)
08.11.2013 10:40 11,9 C 70 % 1015,4 hPa 0,0 l/m 0,0 km/h (0 Bft) N-NW 337 6,6 C 9,4 C 0,0 km/h (0 Bft)
08.11.2013 10:45 12,2 C 69 % 1015,7 hPa 0,0 l/m 0,0 km/h (0 Bft) N-NW 337 6,7 C 9,4 C 0,0 km/h (0 Bft)
08.11.2013 10:50 12,4 C 69 % 1015,7 hPa 0,0 l/m 0,5 km/h (0 Bft) O 90 6,9 C 20,1 C 0,0 km/h (0 Bft)
08.11.2013 10:55 12,9 C 68 % 1015,7 hPa 0,0 l/m 0,6 km/h (0 Bft) O 90 7,1 C 20,1 C 0,0 km/h (0 Bft)
08.11.2013 11:00 13,0 C 66 % 1015,7 hPa 0,0 l/m 0,6 km/h (0 Bft) NO 45 6,8 C 20,7 C 2,7 km/h (1 Bft)
08.11.2013 11:05 13,2 C 66 % 1015,7 hPa 0,0 l/m 0,8 km/h (0 Bft) N-NO 22 7,0 C 20,4 C 0,0 km/h (0 Bft)
08.11.2013 11:10 13,3 C 66 % 1015,7 hPa 0,0 l/m 0,8 km/h (0 Bft) N-NO 22 7,1 C 20,7 C 0,0 km/h (0 Bft)
08.11.2013 11:15 13,6 C 64 % 1015,7 hPa 0,0 l/m 0,2 km/h (0 Bft) W-NW 292 6,9 C 21,5 C 0,0 km/h (0 Bft)
08.11.2013 11:20 13,7 C 62 % 1015,7 hPa 0,0 l/m 0,5 km/h (0 Bft) N 360 6,6 C 21,2 C 3,1 km/h (1 Bft)
08.11.2013 11:25 14,3 C 61 % 1015,8 hPa 0,0 l/m 1,0 km/h (0 Bft) N-NW 337 6,9 C 20,9 C 0,0 km/h (0 Bft)
08.11.2013 11:30 14,5 C 60 % 1015,8 hPa 0,0 l/m 2,3 km/h (1 Bft) S-SW 202 6,8 C 21,4 C 8,7 km/h (2 Bft)
08.11.2013 11:35 14,5 C 59 % 1015,8 hPa 0,0 l/m 6,0 km/h (2 Bft) S 180 6,6 C 20,0 C 10,1 km/h (2 Bft)
08.11.2013 11:40 14,4 C 59 % 1015,8 hPa 0,0 l/m 6,0 km/h (2 Bft) S 180 6,5 C 20,0 C 10,0 km/h (2 Bft)
08.11.2013 11:45 14,1 C 59 % 1015,8 hPa 0,0 l/m 7,2 km/h (2 Bft) S 180 6,2 C 17,8 C 11,1 km/h (2 Bft)
08.11.2013 11:50 13,9 C 60 % 1015,8 hPa 0,0 l/m 7,4 km/h (2 Bft) S 180 6,3 C 16,8 C 6,8 km/h (2 Bft)
08.11.2013 11:55 13,9 C 60 % 1015,8 hPa 0,0 l/m 7,4 km/h (2 Bft) S 180 6,3 C 16,8 C 6,8 km/h (2 Bft)
08.11.2013 12:00 13,9 C 60 % 1015,8 hPa 0,0 l/m 7,4 km/h (2 Bft) S 180 6,3 C 16,8 C 6,8 km/h (2 Bft)
08.11.2013 12:05 13,9 C 60 % 1015,8 hPa 0,0 l/m 5,8 km/h (2 Bft) S 180 6,3 C 17,4 C 5,8 km/h (2 Bft)
08.11.2013 12:10 13,8 C 60 % 1015,8 hPa 0,0 l/m 5,8 km/h (2 Bft) S 180 6,2 C 17,4 C 5,8 km/h (2 Bft)
08.11.2013 12:15 13,6 C 61 % 1015,8 hPa 0,0 l/m 5,6 km/h (1 Bft) O-SO 112 6,2 C 17,8 C 2,4 km/h (1 Bft)
08.11.2013 12:20 13,5 C 61 % 1015,8 hPa 0,0 l/m 5,0 km/h (1 Bft) NO 45 6,1 C 17,9 C 4,3 km/h (1 Bft)
08.11.2013 12:25 13,3 C 62 % 1015,6 hPa 0,0 l/m 4,8 km/h (1 Bft) SO 135 6,2 C 17,9 C 5,8 km/h (2 Bft)
08.11.2013 12:30 13,3 C 62 % 1015,6 hPa 0,0 l/m 4,8 km/h (1 Bft) SO 135 6,2 C 17,9 C 5,8 km/h (2 Bft)
08.11.2013 12:35 13,3 C 63 % 1015,6 hPa 0,0 l/m 4,8 km/h (1 Bft) SO 135 6,4 C 17,9 C 5,8 km/h (2 Bft)
08.11.2013 12:40 13,0 C 63 % 1015,6 hPa 0,0 l/m 0,0 km/h (0 Bft) SO 135 6,1 C 17,9 C 0,0 km/h (0 Bft)
08.11.2013 12:45 13,0 C 63 % 1015,5 hPa 0,0 l/m 0,0 km/h (0 Bft) SO 135 6,1 C 17,9 C 0,0 km/h (0 Bft)
08.11.2013 12:50 13,0 C 64 % 1015,5 hPa 0,0 l/m 0,0 km/h (0 Bft) SO 135 6,4 C 17,9 C 0,0 km/h (0 Bft)
08.11.2013 12:55 13,0 C 63 % 1015,5 hPa 0,0 l/m 0,0 km/h (0 Bft) SO 135 6,1 C 17,9 C 0,0 km/h (0 Bft)
08.11.2013 13:00 13,1 C 63 % 1015,5 hPa 0,0 l/m 0,0 km/h (0 Bft) SO 135 6,2 C 17,9 C 0,0 km/h (0 Bft)
08.11.2013 13:05 13,3 C 62 % 1015,5 hPa 0,0 l/m 0,0 km/h (0 Bft) SO 135 6,2 C 17,9 C 0,0 km/h (0 Bft)
08.11.2013 13:10 13,1 C 62 % 1015,5 hPa 0,0 l/m 0,0 km/h (0 Bft) SO 135 6,0 C 17,9 C 0,0 km/h (0 Bft)
08.11.2013 13:15 13,1 C 62 % 1015,5 hPa 0,0 l/m 0,0 km/h (0 Bft) SO 135 6,0 C 17,9 C 0,0 km/h (0 Bft)
08.11.2013 13:20 13,0 C 62 % 1015,5 hPa 0,0 l/m 0,0 km/h (0 Bft) SO 135 5,9 C 17,9 C 0,0 km/h (0 Bft)
08.11.2013 13:25 13,4 C 61 % 1014,8 hPa 0,0 l/m 0,0 km/h (0 Bft) SO 135 6,0 C 17,9 C 0,0 km/h (0 Bft)
08.11.2013 13:30 13,2 C 61 % 1014,8 hPa 0,0 l/m 0,0 km/h (0 Bft) SO 135 5,8 C 17,9 C 0,0 km/h (0 Bft)
08.11.2013 13:35 13,1 C 61 % 1014,8 hPa 0,0 l/m 0,0 km/h (0 Bft) SO 135 5,8 C 17,9 C 0,0 km/h (0 Bft)
08.11.2013 13:40 13,0 C 62 % 1014,8 hPa 0,0 l/m 1,4 km/h (1 Bft) W-NW 292 5,9 C 15,2 C 2,3 km/h (1 Bft)
08.11.2013 13:45 12,6 C 64 % 1014,6 hPa 0,0 l/m 1,3 km/h (1 Bft) N 360 6,0 C 15,3 C 0,0 km/h (0 Bft)
08.11.2013 13:50 12,6 C 65 % 1014,6 hPa 0,0 l/m 0,6 km/h (0 Bft) SO 135 6,2 C 15,3 C 1,9 km/h (1 Bft)
08.11.2013 13:55 13,0 C 62 % 1014,6 hPa 0,0 l/m 0,5 km/h (0 Bft) NO 45 5,9 C 15,3 C 0,0 km/h (0 Bft)
08.11.2013 14:00 13,5 C 61 % 1014,6 hPa 0,0 l/m 0,8 km/h (0 Bft) W-NW 292 6,1 C 15,3 C 4,8 km/h (1 Bft)
08.11.2013 14:05 14,1 C 60 % 1014,4 hPa 0,0 l/m 2,4 km/h (1 Bft) N 360 6,5 C 15,8 C 2,4 km/h (1 Bft)
08.11.2013 14:10 14,3 C 61 % 1014,4 hPa 0,0 l/m 2,1 km/h (1 Bft) N 360 6,9 C 16,3 C 0,0 km/h (0 Bft)
08.11.2013 14:15 14,9 C 58 % 1014,4 hPa 0,0 l/m 1,4 km/h (1 Bft) N 360 6,7 C 17,1 C 4,8 km/h (1 Bft)
08.11.2013 14:20 15,1 C 58 % 1014,4 hPa 0,0 l/m 2,1 km/h (1 Bft) O 90 6,9 C 17,4 C 4,0 km/h (1 Bft)
08.11.2013 14:25 15,1 C 59 % 1014,9 hPa 0,0 l/m 1,9 km/h (1 Bft) NO 45 7,1 C 17,4 C 0,0 km/h (0 Bft)
08.11.2013 14:30 15,1 C 59 % 1014,9 hPa 0,0 l/m 1,4 km/h (1 Bft) O-NO 67 7,1 C 17,4 C 0,0 km/h (0 Bft)
08.11.2013 14:35 15,1 C 59 % 1014,9 hPa 0,0 l/m 1,4 km/h (1 Bft) S 180 7,1 C 17,3 C 3,2 km/h (1 Bft)
08.11.2013 14:40 15,0 C 59 % 1014,9 hPa 0,0 l/m 2,3 km/h (1 Bft) S 180 7,1 C 17,0 C 3,9 km/h (1 Bft)
08.11.2013 14:45 14,7 C 60 % 1014,4 hPa 0,0 l/m 1,8 km/h (1 Bft) S 180 7,0 C 16,8 C 1,8 km/h (1 Bft)
08.11.2013 14:50 14,6 C 61 % 1014,4 hPa 0,0 l/m 1,3 km/h (1 Bft) SO 135 7,2 C 16,6 C 0,0 km/h (0 Bft)
08.11.2013 14:55 14,5 C 61 % 1014,4 hPa 0,0 l/m 1,1 km/h (1 Bft) O-NO 67 7,1 C 16,2 C 1,6 km/h (1 Bft)
08.11.2013 15:00 14,3 C 61 % 1014,4 hPa 0,0 l/m 0,8 km/h (0 Bft) O-NO 67 6,9 C 16,0 C 0,0 km/h (0 Bft)
08.11.2013 15:05 14,2 C 61 % 1014,5 hPa 0,0 l/m 0,8 km/h (0 Bft) NO 45 6,8 C 15,5 C 0,0 km/h (0 Bft)
08.11.2013 15:10 14,0 C 62 % 1014,5 hPa 0,0 l/m 0,8 km/h (0 Bft) N-NO 22 6,8 C 15,3 C 0,0 km/h (0 Bft)
08.11.2013 15:15 14,0 C 63 % 1014,5 hPa 0,0 l/m 0,2 km/h (0 Bft) N-NO 22 7,1 C 15,2 C 0,0 km/h (0 Bft)
08.11.2013 15:20 14,1 C 61 % 1014,5 hPa 0,0 l/m 0,3 km/h (0 Bft) N 360 6,7 C 15,1 C 2,3 km/h (1 Bft)
08.11.2013 15:25 14,1 C 61 % 1014,4 hPa 0,0 l/m 1,6 km/h (1 Bft) O-NO 67 6,7 C 15,0 C 3,7 km/h (1 Bft)
08.11.2013 15:30 13,9 C 62 % 1014,4 hPa 0,0 l/m 2,7 km/h (1 Bft) O-NO 67 6,7 C 14,8 C 4,3 km/h (1 Bft)
08.11.2013 15:35 13,7 C 63 % 1014,4 hPa 0,0 l/m 4,2 km/h (1 Bft) O-NO 67 6,8 C 14,6 C 5,5 km/h (1 Bft)
08.11.2013 15:40 13,5 C 62 % 1014,4 hPa 0,0 l/m 4,5 km/h (1 Bft) O 90 6,4 C 14,4 C 4,3 km/h (1 Bft)
08.11.2013 15:45 13,3 C 62 % 1014,4 hPa 0,0 l/m 4,5 km/h (1 Bft) NO 45 6,2 C 14,1 C 4,8 km/h (1 Bft)
08.11.2013 15:50 13,2 C 62 % 1014,4 hPa 0,0 l/m 4,7 km/h (1 Bft) O 90 6,1 C 14,0 C 5,8 km/h (2 Bft)
08.11.2013 15:55 12,9 C 65 % 1014,4 hPa 0,0 l/m 4,3 km/h (1 Bft) NO 45 6,5 C 13,7 C 2,7 km/h (1 Bft)
08.11.2013 16:00 12,7 C 65 % 1014,4 hPa 0,0 l/m 3,4 km/h (1 Bft) O-NO 67 6,3 C 13,4 C 3,5 km/h (1 Bft)
08.11.2013 16:05 12,5 C 66 % 1014,1 hPa 0,0 l/m 3,1 km/h (1 Bft) O 90 6,3 C 13,0 C 3,2 km/h (1 Bft)
08.11.2013 16:10 12,3 C 66 % 1014,1 hPa 0,0 l/m 3,4 km/h (1 Bft) O 90 6,1 C 12,8 C 4,5 km/h (1 Bft)
08.11.2013 16:15 12,2 C 67 % 1014,1 hPa 0,0 l/m 3,7 km/h (1 Bft) O 90 6,3 C 12,6 C 4,7 km/h (1 Bft)
08.11.2013 16:20 12,0 C 67 % 1014,1 hPa 0,0 l/m 3,9 km/h (1 Bft) NO 45 6,1 C 12,4 C 4,0 km/h (1 Bft)
08.11.2013 16:25 11,8 C 68 % 1014,1 hPa 0,0 l/m 3,9 km/h (1 Bft) NO 45 6,1 C 12,2 C 3,9 km/h (1 Bft)
08.11.2013 16:30 11,8 C 68 % 1014,1 hPa 0,0 l/m 3,9 km/h (1 Bft) NO 45 6,1 C 12,0 C 3,9 km/h (1 Bft)
08.11.2013 16:35 11,6 C 68 % 1014,1 hPa 0,0 l/m 3,2 km/h (1 Bft) O 90 5,9 C 11,8 C 3,4 km/h (1 Bft)
08.11.2013 16:40 11,6 C 68 % 1014,1 hPa 0,0 l/m 3,2 km/h (1 Bft) O 90 5,9 C 11,8 C 3,4 km/h (1 Bft)
08.11.2013 16:45 10,7 C 71 % 1014,2 hPa 0,0 l/m 3,2 km/h (1 Bft) O 90 5,7 C 11,8 C 3,4 km/h (1 Bft)
08.11.2013 16:50 10,7 C 72 % 1014,2 hPa 0,0 l/m 0,0 km/h (0 Bft) O 90 5,9 C 11,8 C 0,0 km/h (0 Bft)
08.11.2013 16:55 10,9 C 73 % 1014,2 hPa 0,0 l/m 0,0 km/h (0 Bft) O 90 6,3 C 11,8 C 0,0 km/h (0 Bft)
08.11.2013 17:00 10,9 C 74 % 1014,2 hPa 0,0 l/m 0,0 km/h (0 Bft) O 90 6,5 C 11,8 C 0,0 km/h (0 Bft)
08.11.2013 17:05 10,3 C 74 % 1014,1 hPa 0,0 l/m 0,0 km/h (0 Bft) O 90 5,9 C 11,8 C 0,0 km/h (0 Bft)
08.11.2013 17:10 10,1 C 75 % 1014,1 hPa 0,0 l/m 0,0 km/h (0 Bft) O 90 5,9 C 11,8 C 0,0 km/h (0 Bft)
08.11.2013 17:15 10,0 C 75 % 1014,1 hPa 0,0 l/m 0,0 km/h (0 Bft) O 90 5,8 C 11,8 C 0,0 km/h (0 Bft)
08.11.2013 17:20 9,8 C 76 % 1014,1 hPa 0,0 l/m 0,0 km/h (0 Bft) O 90 5,8 C 11,8 C 0,0 km/h (0 Bft)
08.11.2013 17:25 9,5 C 76 % 1014,1 hPa 0,0 l/m 0,0 km/h (0 Bft) O 90 5,5 C 11,8 C 0,0 km/h (0 Bft)
08.11.2013 17:30 9,6 C 76 % 1014,1 hPa 0,0 l/m 0,0 km/h (0 Bft) O 90 5,6 C 11,8 C 0,0 km/h (0 Bft)
08.11.2013 17:35 10,1 C 77 % 1014,1 hPa 0,0 l/m 0,0 km/h (0 Bft) O 90 6,3 C 11,8 C 0,0 km/h (0 Bft)
08.11.2013 17:40 10,1 C 77 % 1014,1 hPa 0,0 l/m 0,0 km/h (0 Bft) O 90 6,3 C 11,8 C 0,0 km/h (0 Bft)
08.11.2013 17:45 9,5 C 77 % 1014,1 hPa 0,0 l/m 0,0 km/h (0 Bft) O 90 5,7 C 11,8 C 0,0 km/h (0 Bft)
08.11.2013 17:50 9,4 C 77 % 1014,1 hPa 0,0 l/m 0,0 km/h (0 Bft) O 90 5,6 C 11,8 C 0,0 km/h (0 Bft)
08.11.2013 17:55 9,2 C 78 % 1014,1 hPa 0,0 l/m 0,0 km/h (0 Bft) O 90 5,6 C 11,8 C 0,0 km/h (0 Bft)
08.11.2013 18:00 9,0 C 78 % 1014,1 hPa 0,0 l/m 0,0 km/h (0 Bft) O 90 5,4 C 11,8 C 0,0 km/h (0 Bft)
08.11.2013 18:05 8,9 C 79 % 1014,1 hPa 0,0 l/m 0,0 km/h (0 Bft) O 90 5,5 C 11,8 C 0,0 km/h (0 Bft)
08.11.2013 18:10 8,8 C 79 % 1014,1 hPa 0,0 l/m 0,0 km/h (0 Bft) O 90 5,4 C 11,8 C 0,0 km/h (0 Bft)
08.11.2013 18:15 9,3 C 80 % 1014,1 hPa 0,0 l/m 0,0 km/h (0 Bft) O 90 6,0 C 11,8 C 0,0 km/h (0 Bft)
08.11.2013 18:20 9,6 C 81 % 1014,1 hPa 0,0 l/m 0,0 km/h (0 Bft) O 90 6,5 C 11,8 C 0,0 km/h (0 Bft)
08.11.2013 18:25 9,2 C 80 % 1014,1 hPa 0,0 l/m 0,0 km/h (0 Bft) O 90 5,9 C 11,8 C 0,0 km/h (0 Bft)
08.11.2013 18:30 9,2 C 80 % 1014,1 hPa 0,0 l/m 0,0 km/h (0 Bft) O 90 5,9 C 11,8 C 0,0 km/h (0 Bft)
08.11.2013 18:35 8,9 C 80 % 1014,1 hPa 0,0 l/m 0,0 km/h (0 Bft) O 90 5,6 C 11,8 C 0,0 km/h (0 Bft)
08.11.2013 18:40 9,1 C 81 % 1014,1 hPa 0,0 l/m 0,0 km/h (0 Bft) O 90 6,0 C 11,8 C 0,0 km/h (0 Bft)
08.11.2013 18:45 9,3 C 81 % 1014,1 hPa 0,0 l/m 0,0 km/h (0 Bft) O 90 6,2 C 11,8 C 0,0 km/h (0 Bft)
08.11.2013 18:50 9,3 C 82 % 1013,6 hPa 0,0 l/m 0,0 km/h (0 Bft) O 90 6,4 C 11,8 C 0,0 km/h (0 Bft)
08.11.2013 18:55 9,2 C 82 % 1013,6 hPa 0,0 l/m 0,0 km/h (0 Bft) O 90 6,3 C 11,8 C 0,0 km/h (0 Bft)
08.11.2013 19:00 9,3 C 82 % 1013,6 hPa 0,0 l/m 0,0 km/h (0 Bft) O 90 6,4 C 11,8 C 0,0 km/h (0 Bft)
08.11.2013 19:05 9,3 C 82 % 1013,6 hPa 0,0 l/m 0,0 km/h (0 Bft) O 90 6,4 C 11,8 C 0,0 km/h (0 Bft)
08.11.2013 19:10 9,1 C 82 % 1013,4 hPa 0,0 l/m 0,0 km/h (0 Bft) O 90 6,2 C 11,8 C 0,0 km/h (0 Bft)
08.11.2013 19:15 8,8 C 82 % 1013,4 hPa 0,0 l/m 0,0 km/h (0 Bft) O 90 5,9 C 11,8 C 0,0 km/h (0 Bft)
08.11.2013 19:20 9,1 C 82 % 1013,4 hPa 0,0 l/m 0,0 km/h (0 Bft) O 90 6,2 C 11,8 C 0,0 km/h (0 Bft)
08.11.2013 19:25 8,8 C 82 % 1013,4 hPa 0,0 l/m 0,0 km/h (0 Bft) O 90 5,9 C 11,8 C 0,0 km/h (0 Bft)
08.11.2013 19:30 8,4 C 82 % 1013,1 hPa 0,0 l/m 0,0 km/h (0 Bft) O 90 5,5 C 11,8 C 0,0 km/h (0 Bft)
08.11.2013 19:35 8,4 C 82 % 1013,1 hPa 0,0 l/m 0,0 km/h (0 Bft) O 90 5,5 C 11,8 C 0,0 km/h (0 Bft)
08.11.2013 19:40 8,7 C 83 % 1013,1 hPa 0,0 l/m 0,0 km/h (0 Bft) O 90 6,0 C 11,8 C 0,0 km/h (0 Bft)
08.11.2013 19:45 8,4 C 83 % 1013,1 hPa 0,0 l/m 0,0 km/h (0 Bft) O 90 5,7 C 11,8 C 0,0 km/h (0 Bft)
08.11.2013 19:50 8,4 C 83 % 1012,6 hPa 0,0 l/m 0,0 km/h (0 Bft) O 90 5,7 C 11,8 C 0,0 km/h (0 Bft)
08.11.2013 19:55 8,3 C 83 % 1012,6 hPa 0,0 l/m 0,0 km/h (0 Bft) O 90 5,6 C 11,8 C 0,0 km/h (0 Bft)
08.11.2013 20:00 8,2 C 83 % 1012,6 hPa 0,0 l/m 0,0 km/h (0 Bft) O 90 5,5 C 11,8 C 0,0 km/h (0 Bft)
08.11.2013 20:05 8,1 C 84 % 1012,6 hPa 0,0 l/m 0,0 km/h (0 Bft) O 90 5,6 C 11,8 C 0,0 km/h (0 Bft)
08.11.2013 20:10 8,3 C 84 % 1012,4 hPa 0,0 l/m 0,0 km/h (0 Bft) O 90 5,8 C 11,8 C 0,0 km/h (0 Bft)
08.11.2013 20:15 8,6 C 84 % 1012,4 hPa 0,0 l/m 0,0 km/h (0 Bft) O 90 6,1 C 11,8 C 0,0 km/h (0 Bft)
08.11.2013 20:20 8,6 C 84 % 1012,4 hPa 0,0 l/m 0,0 km/h (0 Bft) O 90 6,1 C 11,8 C 0,0 km/h (0 Bft)
08.11.2013 20:25 8,6 C 84 % 1012,4 hPa 0,0 l/m 0,0 km/h (0 Bft) O 90 6,1 C 11,8 C 0,0 km/h (0 Bft)
08.11.2013 20:30 8,3 C 84 % 1011,9 hPa 0,0 l/m 0,0 km/h (0 Bft) O 90 5,8 C 11,8 C 0,0 km/h (0 Bft)
08.11.2013 20:35 8,0 C 83 % 1011,9 hPa 0,0 l/m 0,0 km/h (0 Bft) O 90 5,3 C 11,8 C 0,0 km/h (0 Bft)
08.11.2013 20:40 7,8 C 84 % 1011,9 hPa 0,0 l/m 0,0 km/h (0 Bft) O 90 5,3 C 11,8 C 0,0 km/h (0 Bft)
08.11.2013 20:45 7,7 C 84 % 1011,9 hPa 0,0 l/m 0,0 km/h (0 Bft) O 90 5,2 C 11,8 C 0,0 km/h (0 Bft)
08.11.2013 20:50 8,2 C 84 % 1011,8 hPa 0,0 l/m 0,0 km/h (0 Bft) O 90 5,7 C 11,8 C 0,0 km/h (0 Bft)
08.11.2013 20:55 8,3 C 84 % 1011,8 hPa 0,0 l/m 0,0 km/h (0 Bft) O 90 5,8 C 11,8 C 0,0 km/h (0 Bft)
08.11.2013 21:00 7,9 C 84 % 1011,8 hPa 0,0 l/m 1,0 km/h (0 Bft) NO 45 5,4 C 7,7 C 0,0 km/h (0 Bft)
08.11.2013 21:05 7,7 C 84 % 1011,8 hPa 0,0 l/m 0,2 km/h (0 Bft) O-NO 67 5,2 C 7,6 C 0,0 km/h (0 Bft)
08.11.2013 21:10 7,4 C 84 % 1011,8 hPa 0,0 l/m 0,3 km/h (0 Bft) O 90 4,9 C 7,5 C 0,0 km/h (0 Bft)
08.11.2013 21:15 7,4 C 85 % 1011,8 hPa 0,0 l/m 0,3 km/h (0 Bft) N-NO 22 5,0 C 7,4 C 0,0 km/h (0 Bft)
08.11.2013 21:20 7,2 C 85 % 1011,8 hPa 0,0 l/m 0,0 km/h (0 Bft) NO 45 4,9 C 7,3 C 0,0 km/h (0 Bft)
08.11.2013 21:25 7,2 C 85 % 1011,8 hPa 0,0 l/m 0,2 km/h (0 Bft) N-NW 337 4,9 C 7,3 C 0,0 km/h (0 Bft)
08.11.2013 21:30 7,8 C 86 % 1011,5 hPa 0,0 l/m 1,6 km/h (1 Bft) O 90 5,6 C 7,5 C 4,3 km/h (1 Bft)
08.11.2013 21:35 8,1 C 86 % 1011,5 hPa 0,0 l/m 2,6 km/h (1 Bft) O 90 5,9 C 7,7 C 4,5 km/h (1 Bft)
08.11.2013 21:40 8,4 C 86 % 1011,5 hPa 0,0 l/m 3,5 km/h (1 Bft) O-SO 112 6,2 C 8,0 C 3,4 km/h (1 Bft)
08.11.2013 21:45 8,2 C 86 % 1011,5 hPa 0,0 l/m 3,5 km/h (1 Bft) O 90 6,0 C 8,1 C 3,1 km/h (1 Bft)
08.11.2013 21:50 8,1 C 85 % 1011,3 hPa 0,0 l/m 3,2 km/h (1 Bft) O 90 5,7 C 8,1 C 3,5 km/h (1 Bft)
08.11.2013 21:55 7,9 C 85 % 1011,3 hPa 0,0 l/m 2,4 km/h (1 Bft) O-SO 112 5,5 C 8,1 C 1,9 km/h (1 Bft)
08.11.2013 22:00 7,9 C 86 % 1011,3 hPa 0,0 l/m 1,8 km/h (1 Bft) S-SO 157 5,7 C 8,2 C 2,9 km/h (1 Bft)
08.11.2013 22:05 8,0 C 85 % 1011,3 hPa 0,0 l/m 1,8 km/h (1 Bft) S 180 5,6 C 8,4 C 2,4 km/h (1 Bft)
08.11.2013 22:10 8,0 C 85 % 1011,4 hPa 0,0 l/m 2,3 km/h (1 Bft) O-NO 67 5,6 C 8,5 C 0,0 km/h (0 Bft)
08.11.2013 22:15 7,8 C 85 % 1011,4 hPa 0,0 l/m 1,9 km/h (1 Bft) O 90 5,4 C 8,3 C 3,4 km/h (1 Bft)
08.11.2013 22:20 8,4 C 85 % 1011,4 hPa 0,0 l/m 1,8 km/h (1 Bft) SO 135 6,0 C 8,3 C 1,9 km/h (1 Bft)
08.11.2013 22:25 8,6 C 85 % 1011,4 hPa 0,0 l/m 2,4 km/h (1 Bft) O-SO 112 6,2 C 8,5 C 3,1 km/h (1 Bft)
08.11.2013 22:30 8,8 C 85 % 1011,4 hPa 0,0 l/m 2,4 km/h (1 Bft) S-SO 157 6,4 C 8,8 C 5,5 km/h (1 Bft)
08.11.2013 22:35 8,7 C 84 % 1011,4 hPa 0,0 l/m 2,3 km/h (1 Bft) SO 135 6,2 C 8,9 C 3,1 km/h (1 Bft)
08.11.2013 22:40 9,0 C 84 % 1011,4 hPa 0,0 l/m 2,6 km/h (1 Bft) SO 135 6,4 C 9,0 C 4,2 km/h (1 Bft)
08.11.2013 22:45 9,2 C 83 % 1011,4 hPa 0,0 l/m 2,7 km/h (1 Bft) O-SO 112 6,5 C 9,2 C 4,2 km/h (1 Bft)
08.11.2013 22:50 9,1 C 83 % 1011,4 hPa 0,0 l/m 4,2 km/h (1 Bft) S-SO 157 6,4 C 9,4 C 4,0 km/h (1 Bft)
08.11.2013 22:55 8,9 C 83 % 1011,4 hPa 0,0 l/m 4,8 km/h (1 Bft) SO 135 6,2 C 9,3 C 5,0 km/h (1 Bft)
08.11.2013 23:00 8,8 C 83 % 1011,4 hPa 0,0 l/m 3,9 km/h (1 Bft) S-SO 157 6,1 C 9,5 C 7,1 km/h (2 Bft)
08.11.2013 23:05 8,7 C 82 % 1011,4 hPa 0,0 l/m 3,1 km/h (1 Bft) O-SO 112 5,8 C 9,4 C 3,9 km/h (1 Bft)
08.11.2013 23:10 8,5 C 82 % 1011,4 hPa 0,0 l/m 1,8 km/h (1 Bft) SO 135 5,6 C 9,2 C 0,0 km/h (0 Bft)
08.11.2013 23:15 8,3 C 83 % 1011,4 hPa 0,0 l/m 1,0 km/h (0 Bft) NO 45 5,6 C 9,1 C 0,0 km/h (0 Bft)
08.11.2013 23:20 8,9 C 83 % 1011,4 hPa 0,0 l/m 1,6 km/h (1 Bft) O 90 6,2 C 9,1 C 1,9 km/h (1 Bft)
08.11.2013 23:25 9,1 C 83 % 1011,4 hPa 0,0 l/m 2,6 km/h (1 Bft) O 90 6,4 C 9,2 C 2,9 km/h (1 Bft)
08.11.2013 23:30 9,1 C 83 % 1011,8 hPa 0,0 l/m 2,4 km/h (1 Bft) O-SO 112 6,4 C 9,3 C 3,1 km/h (1 Bft)
08.11.2013 23:35 8,8 C 82 % 1011,8 hPa 0,0 l/m 1,6 km/h (1 Bft) O 90 5,9 C 9,3 C 1,6 km/h (1 Bft)
08.11.2013 23:40 8,5 C 82 % 1011,8 hPa 0,0 l/m 1,1 km/h (1 Bft) S-SO 157 5,6 C 9,1 C 4,7 km/h (1 Bft)
08.11.2013 23:45 8,7 C 83 % 1011,8 hPa 0,0 l/m 2,7 km/h (1 Bft) SO 135 6,0 C 9,3 C 4,0 km/h (1 Bft)
08.11.2013 23:50 9,1 C 83 % 1012,2 hPa 0,0 l/m 4,5 km/h (1 Bft) S-SO 157 6,4 C 9,4 C 4,0 km/h (1 Bft)
08.11.2013 23:55 9,4 C 82 % 1012,2 hPa 0,0 l/m 5,0 km/h (1 Bft) S-SO 157 6,5 C 9,6 C 13,7 km/h (3 Bft)
_ Min-Zeit 02:20 14:20 22:05 - 21:20 - - 02:30 03:00 23:15
Minimum _ 2,5 C 58 % 1011,3 hPa - 0,0 km/h (0 Bft) - - 1,4 C 2,7 C 0,0 km/h (0 Bft)
_ Max-Zeit 14:35 04:45 00:05 23:55 12:00 - - 14:50 11:15 23:55
Maximum _ 15,1 C 94 % 1016,7 hPa 0,0 l/m 7,4 km/h
S (2 Bft)
- - 7,2 C 21,5 C 13,7 km/h
S-SO (3 Bft)
Durchschnitt _ 8,5 C 80 % 1014,6 hPa #0,0 l/m 1,1 km/h (1 Bft) O - 5,0 C 10,3 C 1,5 km/h (1 Bft)